Time;durP1;ratioP1;P1;durP2;ratioP2;P2;SDS_P1;SDS_P2;PMS_P1;PMS_P2;Temp;Humidity;BMP_temperature;BMP_pressure;BME280_temperature;BME280_humidity;BME280_pressure;Samples;Min_cycle;Max_cycle;Signal;HPM_P1;HPM_P2
2021/04/10 00:01:28;;;;;;;12.87;6.43;;;;;;;;;;5116179;28;20884;-75
2021/04/10 00:03:54;;;;;;;10.73;5.05;;;;;;;;;;5094933;28;20467;-75
2021/04/10 00:06:20;;;;;;;11.63;4.73;;;;;;;;;;5108688;28;20232;-75
2021/04/10 00:08:46;;;;;;;9.82;4.90;;;;;;;;;;5095806;28;20497;-75
2021/04/10 00:11:12;;;;;;;11.82;4.88;;;;;;;;;;5094286;28;20185;-75
2021/04/10 00:13:38;;;;;;;9.50;4.53;;;;;;;;;;5094877;28;20563;-75
2021/04/10 00:16:04;;;;;;;10.70;4.80;;;;;;;;;;5108335;28;20428;-75
2021/04/10 00:18:30;;;;;;;15.23;5.03;;;;;;;;;;5112392;28;20413;-75
2021/04/10 00:20:56;;;;;;;13.27;4.93;;;;;;;;;;5095314;28;20183;-75
2021/04/10 00:23:22;;;;;;;7.47;3.95;;;;;;;;;;5094609;28;20540;-75
2021/04/10 00:25:48;;;;;;;9.27;4.65;;;;;;;;;;5094930;28;20195;-74
2021/04/10 00:28:14;;;;;;;16.83;4.93;;;;;;;;;;5094962;28;20514;-74
2021/04/10 00:30:40;;;;;;;10.50;4.40;;;;;;;;;;5094742;28;20420;-74
2021/04/10 00:33:06;;;;;;;9.23;4.40;;;;;;;;;;5094609;28;20409;-74
2021/04/10 00:35:32;;;;;;;10.95;3.92;;;;;;;;;;5094779;28;20470;-75
2021/04/10 00:37:58;;;;;;;7.78;3.30;;;;;;;;;;5095067;28;20536;-75
2021/04/10 00:40:24;;;;;;;10.00;3.70;;;;;;;;;;5095205;28;20171;-75
2021/04/10 00:42:50;;;;;;;11.93;4.82;;;;;;;;;;5094459;28;20174;-75
2021/04/10 00:45:16;;;;;;;13.20;4.97;;;;;;;;;;5094794;28;20258;-75
2021/04/10 00:47:42;;;;;;;12.00;4.28;;;;;;;;;;5111649;28;20412;-75
2021/04/10 00:50:08;;;;;;;15.35;4.50;;;;;;;;;;5114982;28;20182;-75
2021/04/10 00:52:35;;;;;;;7.47;4.22;;;;;;;;;;5114813;28;20312;-75
2021/04/10 00:55:03;;;;;;;10.02;4.45;;;;;;;;;;5104272;28;20191;-75
2021/04/10 00:57:29;;;;;;;10.40;5.10;;;;;;;;;;5092729;28;20199;-75
2021/04/10 00:59:56;;;;;;;12.57;5.50;;;;;;;;;;5097370;28;20175;-75
2021/04/10 01:02:22;;;;;;;12.40;5.45;;;;;;;;;;5109077;28;20240;-75
2021/04/10 01:04:48;;;;;;;10.85;4.97;;;;;;;;;;5098458;28;20686;-76
2021/04/10 01:07:15;;;;;;;14.52;5.93;;;;;;;;;;5094270;28;20211;-76
2021/04/10 01:09:41;;;;;;;12.80;5.15;;;;;;;;;;5093983;28;20179;-76
2021/04/10 01:12:18;;;;;;;9.93;4.43;;;;;;;;;;5114883;28;20522;-75
2021/04/10 01:15:07;;;;;;;9.25;4.10;;;;;;;;;;5100444;28;20285;-75
2021/04/10 01:17:37;;;;;;;12.93;5.18;;;;;;;;;;5103239;28;20182;-75
2021/04/10 01:20:14;;;;;;;7.43;3.55;;;;;;;;;;5093830;28;20182;-75
2021/04/10 01:22:59;;;;;;;12.10;4.15;;;;;;;;;;5108498;28;20182;-74
2021/04/10 01:25:54;;;;;;;9.05;4.28;;;;;;;;;;5114021;28;20175;-75
2021/04/10 01:28:41;;;;;;;9.60;4.07;;;;;;;;;;5064380;28;20196;-75
2021/04/10 01:31:08;;;;;;;10.70;3.92;;;;;;;;;;5102887;28;20198;-76
2021/04/10 01:33:37;;;;;;;9.00;4.22;;;;;;;;;;5113824;28;20178;-74
2021/04/10 01:36:04;;;;;;;10.95;4.38;;;;;;;;;;5113995;28;20272;-75
2021/04/10 01:38:31;;;;;;;8.93;4.85;;;;;;;;;;5084571;28;20509;-75
2021/04/10 01:41:00;;;;;;;14.23;4.90;;;;;;;;;;5093415;28;20584;-74
2021/04/10 01:43:27;;;;;;;12.13;5.00;;;;;;;;;;5093673;28;20570;-75
2021/04/10 01:45:53;;;;;;;8.52;4.75;;;;;;;;;;5093482;28;20544;-75
2021/04/10 01:48:20;;;;;;;8.40;4.93;;;;;;;;;;5093776;28;20175;-75
2021/04/10 01:50:47;;;;;;;9.60;5.47;;;;;;;;;;5093506;28;20175;-75
2021/04/10 01:53:13;;;;;;;7.05;4.78;;;;;;;;;;5092969;28;20178;-75
2021/04/10 01:55:40;;;;;;;16.25;5.90;;;;;;;;;;5093229;28;20210;-75
2021/04/10 01:58:07;;;;;;;9.35;5.60;;;;;;;;;;5093287;28;20258;-75
2021/04/10 02:00:35;;;;;;;13.35;5.30;;;;;;;;;;5093662;28;20179;-75
2021/04/10 02:03:01;;;;;;;13.70;5.38;;;;;;;;;;5093070;28;20179;-75
2021/04/10 02:05:27;;;;;;;14.45;5.63;;;;;;;;;;5093211;28;20195;-75
2021/04/10 02:07:53;;;;;;;8.20;5.20;;;;;;;;;;5093404;28;20183;-75
2021/04/10 02:10:22;;;;;;;8.80;4.85;;;;;;;;;;5093706;28;20206;-74
2021/04/10 02:12:49;;;;;;;14.20;5.45;;;;;;;;;;5113110;28;20676;-75
2021/04/10 02:15:15;;;;;;;11.80;5.68;;;;;;;;;;5094051;28;20556;-75
2021/04/10 02:17:41;;;;;;;16.00;6.25;;;;;;;;;;5093124;28;20182;-75
2021/04/10 02:20:11;;;;;;;15.70;5.70;;;;;;;;;;5091767;28;20176;-76
2021/04/10 02:22:38;;;;;;;11.68;5.30;;;;;;;;;;5100122;28;20455;-76
2021/04/10 02:25:05;;;;;;;20.92;6.35;;;;;;;;;;5113128;28;20565;-74
2021/04/10 02:27:31;;;;;;;11.43;5.68;;;;;;;;;;5098848;28;20199;-75
2021/04/10 02:29:57;;;;;;;13.40;6.13;;;;;;;;;;5100209;28;20560;-76
2021/04/10 02:32:28;;;;;;;12.07;6.00;;;;;;;;;;5108598;28;20441;-75
2021/04/10 02:34:58;;;;;;;11.48;5.47;;;;;;;;;;5099358;28;20203;-75
2021/04/10 02:37:25;;;;;;;10.50;5.65;;;;;;;;;;5099232;28;20199;-75
2021/04/10 02:39:51;;;;;;;10.02;5.38;;;;;;;;;;5101030;28;20252;-75
2021/04/10 02:42:18;;;;;;;11.82;5.75;;;;;;;;;;5103772;27;20175;-75
2021/04/10 02:44:50;;;;;;;12.90;6.30;;;;;;;;;;5098291;28;20183;-75
2021/04/10 02:47:18;;;;;;;7.47;5.07;;;;;;;;;;5099368;28;20671;-74
2021/04/10 02:49:45;;;;;;;13.30;5.88;;;;;;;;;;5100935;28;20182;-75
2021/04/10 02:52:11;;;;;;;11.82;6.03;;;;;;;;;;5120035;27;20213;-75
2021/04/10 02:54:42;;;;;;;13.73;5.85;;;;;;;;;;5101260;27;20537;-75
2021/04/10 02:57:10;;;;;;;10.20;6.30;;;;;;;;;;5099449;28;20198;-75
2021/04/10 02:59:39;;;;;;;16.02;5.82;;;;;;;;;;5099052;28;20217;-75
2021/04/10 03:02:05;;;;;;;13.90;6.85;;;;;;;;;;5099576;28;20250;-75
2021/04/10 03:04:32;;;;;;;9.82;5.50;;;;;;;;;;5101687;28;20546;-75
2021/04/10 03:06:59;;;;;;;13.82;6.35;;;;;;;;;;5099123;28;20199;-75
2021/04/10 03:09:26;;;;;;;12.20;5.57;;;;;;;;;;5100063;28;20601;-74
2021/04/10 03:11:52;;;;;;;13.50;6.97;;;;;;;;;;5111788;28;20178;-75
2021/04/10 03:14:18;;;;;;;12.50;6.05;;;;;;;;;;5111305;27;20201;-74
2021/04/10 03:16:45;;;;;;;12.85;5.50;;;;;;;;;;5109334;28;20310;-75
2021/04/10 03:19:11;;;;;;;16.15;6.40;;;;;;;;;;5099160;28;20190;-75
2021/04/10 03:21:41;;;;;;;10.70;6.20;;;;;;;;;;5101833;28;20187;-75
2021/04/10 03:24:07;;;;;;;11.98;6.45;;;;;;;;;;5099297;28;20179;-74
2021/04/10 03:26:34;;;;;;;9.25;5.43;;;;;;;;;;5098895;28;20597;-75
2021/04/10 03:29:01;;;;;;;17.15;5.85;;;;;;;;;;5099596;28;20187;-75
2021/04/10 03:31:27;;;;;;;14.43;6.28;;;;;;;;;;5098947;28;20183;-75
2021/04/10 03:33:53;;;;;;;10.57;6.55;;;;;;;;;;5119244;28;20213;-75
2021/04/10 03:36:19;;;;;;;12.00;6.57;;;;;;;;;;5114562;27;20191;-76
2021/04/10 03:38:45;;;;;;;12.15;5.80;;;;;;;;;;5112827;28;20388;-75
2021/04/10 03:41:11;;;;;;;11.90;6.78;;;;;;;;;;5095713;28;20183;-75
2021/04/10 03:43:38;;;;;;;13.45;6.43;;;;;;;;;;5109685;28;20171;-75
2021/04/10 03:46:04;;;;;;;17.50;6.50;;;;;;;;;;5095227;28;20199;-75
2021/04/10 03:48:30;;;;;;;8.55;6.45;;;;;;;;;;5102637;28;20175;-75
2021/04/10 03:50:56;;;;;;;8.43;6.20;;;;;;;;;;5114801;28;20178;-76
2021/04/10 03:53:22;;;;;;;15.02;7.00;;;;;;;;;;5099791;28;20510;-75
2021/04/10 03:55:48;;;;;;;12.15;6.47;;;;;;;;;;5095400;28;20740;-75
2021/04/10 03:58:14;;;;;;;17.70;6.70;;;;;;;;;;5103363;28;20243;-75
2021/04/10 04:00:40;;;;;;;13.18;5.53;;;;;;;;;;5095346;28;20198;-75
2021/04/10 04:03:06;;;;;;;14.55;5.80;;;;;;;;;;5081626;28;20167;-74
2021/04/10 04:05:32;;;;;;;13.30;5.50;;;;;;;;;;5095144;28;20215;-76
2021/04/10 04:07:58;;;;;;;10.83;5.63;;;;;;;;;;5091313;28;20473;-75
2021/04/10 04:10:24;;;;;;;14.32;6.15;;;;;;;;;;5104237;28;20738;-74
2021/04/10 04:12:50;;;;;;;11.05;5.50;;;;;;;;;;5095276;28;20532;-76
2021/04/10 04:15:17;;;;;;;10.97;6.10;;;;;;;;;;5098464;28;20194;-76
2021/04/10 04:17:43;;;;;;;9.10;5.40;;;;;;;;;;5115832;28;20383;-75
2021/04/10 04:20:10;;;;;;;17.45;5.20;;;;;;;;;;5097801;28;20175;-75
2021/04/10 04:22:36;;;;;;;12.10;4.60;;;;;;;;;;5094947;28;20178;-75
2021/04/10 04:25:02;;;;;;;12.70;6.80;;;;;;;;;;5094892;28;20176;-75
2021/04/10 04:27:28;;;;;;;10.90;4.80;;;;;;;;;;5094766;28;20457;-74
2021/04/10 04:29:54;;;;;;;9.97;4.37;;;;;;;;;;5112616;28;20187;-76
2021/04/10 04:32:21;;;;;;;9.75;4.32;;;;;;;;;;5110905;28;20422;-75
2021/04/10 04:34:47;;;;;;;8.40;4.15;;;;;;;;;;5098864;28;20263;-75
2021/04/10 04:37:13;;;;;;;8.93;5.32;;;;;;;;;;5094548;28;20194;-74
2021/04/10 04:39:39;;;;;;;9.63;4.90;;;;;;;;;;5109361;28;20184;-75
2021/04/10 04:42:05;;;;;;;12.40;4.50;;;;;;;;;;5102027;28;20441;-75
2021/04/10 04:44:31;;;;;;;11.32;4.63;;;;;;;;;;5094485;28;20191;-74
2021/04/10 04:46:57;;;;;;;13.35;4.63;;;;;;;;;;5094585;28;20195;-75
2021/04/10 04:49:24;;;;;;;14.38;4.70;;;;;;;;;;5112650;28;20318;-75
2021/04/10 04:51:52;;;;;;;12.50;4.63;;;;;;;;;;5106014;28;20270;-75
2021/04/10 04:54:18;;;;;;;10.57;4.50;;;;;;;;;;5097428;28;20674;-75
2021/04/10 04:56:44;;;;;;;17.30;5.70;;;;;;;;;;5094196;28;20196;-75
2021/04/10 04:59:10;;;;;;;6.97;3.73;;;;;;;;;;5093877;28;20413;-75
2021/04/10 05:01:36;;;;;;;10.63;4.40;;;;;;;;;;5094351;28;20395;-76
2021/04/10 05:04:01;;;;;;;7.60;3.90;;;;;;;;;;5095288;28;20429;-76
2021/04/10 05:06:27;;;;;;;13.27;4.40;;;;;;;;;;5102315;28;20475;-75
2021/04/10 05:08:53;;;;;;;9.33;4.03;;;;;;;;;;5094737;28;20518;-76
2021/04/10 05:11:19;;;;;;;9.02;3.97;;;;;;;;;;5096146;28;20508;-75
2021/04/10 05:13:45;;;;;;;8.23;3.77;;;;;;;;;;5093644;28;20299;-75
2021/04/10 05:16:11;;;;;;;9.18;4.28;;;;;;;;;;5102586;28;20835;-76
2021/04/10 05:18:37;;;;;;;9.03;3.73;;;;;;;;;;5110727;28;20221;-74
2021/04/10 05:21:03;;;;;;;9.77;4.20;;;;;;;;;;5107404;28;20483;-75
2021/04/10 05:23:29;;;;;;;5.32;3.58;;;;;;;;;;5104802;28;20421;-76
2021/04/10 05:25:55;;;;;;;13.00;3.50;;;;;;;;;;5093964;28;20195;-75
2021/04/10 05:28:21;;;;;;;10.65;4.07;;;;;;;;;;5093428;28;20781;-76
2021/04/10 05:30:47;;;;;;;10.73;4.23;;;;;;;;;;5101612;28;20186;-76
2021/04/10 05:33:14;;;;;;;8.77;3.30;;;;;;;;;;5111374;28;20404;-75
2021/04/10 05:35:40;;;;;;;13.30;4.00;;;;;;;;;;5110880;28;20211;-75
2021/04/10 05:38:06;;;;;;;19.05;6.25;;;;;;;;;;5112115;28;20647;-75
2021/04/10 05:40:32;;;;;;;6.53;3.63;;;;;;;;;;5093264;28;20206;-76
2021/04/10 05:42:58;;;;;;;6.03;2.93;;;;;;;;;;5092947;28;20272;-75
2021/04/10 05:45:26;;;;;;;10.03;3.20;;;;;;;;;;5093013;28;20384;-75
2021/04/10 05:47:52;;;;;;;12.20;3.83;;;;;;;;;;5093421;28;20753;-75
2021/04/10 05:50:18;;;;;;;9.27;2.97;;;;;;;;;;5101708;28;20178;-76
2021/04/10 05:52:44;;;;;;;7.50;2.72;;;;;;;;;;5097790;28;20183;-75
2021/04/10 05:55:10;;;;;;;9.27;3.00;;;;;;;;;;5093466;28;20702;-75
2021/04/10 05:57:36;;;;;;;11.40;2.88;;;;;;;;;;5093185;28;20910;-76
2021/04/10 06:00:03;;;;;;;9.75;3.28;;;;;;;;;;5093238;28;20175;-76
2021/04/10 06:02:29;;;;;;;6.55;3.28;;;;;;;;;;5102286;28;20654;-76
2021/04/10 06:04:55;;;;;;;6.40;3.00;;;;;;;;;;5091641;28;20307;-75
2021/04/10 06:07:21;;;;;;;7.18;3.20;;;;;;;;;;5094242;28;20444;-74
2021/04/10 06:09:47;;;;;;;8.67;3.80;;;;;;;;;;5100741;28;20179;-76
2021/04/10 06:12:13;;;;;;;7.77;3.10;;;;;;;;;;5093232;28;20421;-76
2021/04/10 06:14:39;;;;;;;10.65;3.22;;;;;;;;;;5100737;28;20484;-75
2021/04/10 06:17:05;;;;;;;11.40;3.80;;;;;;;;;;5098401;28;20683;-74
2021/04/10 06:19:31;;;;;;;8.77;3.35;;;;;;;;;;5101229;28;20715;-75
2021/04/10 06:21:57;;;;;;;6.93;3.10;;;;;;;;;;5107437;28;20198;-75
2021/04/10 06:24:23;;;;;;;10.00;2.97;;;;;;;;;;5088324;28;20396;-74
2021/04/10 06:26:49;;;;;;;10.27;3.58;;;;;;;;;;5092799;28;20925;-75
2021/04/10 06:29:15;;;;;;;9.32;3.67;;;;;;;;;;5092705;28;20179;-74
2021/04/10 06:31:41;;;;;;;8.32;3.58;;;;;;;;;;5092975;28;20229;-75
2021/04/10 06:34:07;;;;;;;4.85;2.97;;;;;;;;;;5092534;28;20211;-74
2021/04/10 06:36:34;;;;;;;10.85;4.63;;;;;;;;;;5092735;28;20656;-77
2021/04/10 06:38:59;;;;;;;11.60;3.65;;;;;;;;;;5092759;28;20516;-75
2021/04/10 06:41:26;;;;;;;8.83;3.80;;;;;;;;;;5093104;28;20171;-76
2021/04/10 06:43:52;;;;;;;11.27;3.83;;;;;;;;;;5092619;28;20416;-76
2021/04/10 06:46:18;;;;;;;12.02;6.43;;;;;;;;;;5095157;28;20328;-75
2021/04/10 06:48:45;;;;;;;6.25;3.45;;;;;;;;;;5111783;28;20273;-76
2021/04/10 06:51:15;;;;;;;8.63;3.05;;;;;;;;;;5113567;28;20187;-75
2021/04/10 06:53:46;;;;;;;10.75;3.05;;;;;;;;;;5112642;28;20308;-75
2021/04/10 06:56:13;;;;;;;10.20;3.22;;;;;;;;;;5112977;28;20202;-77
2021/04/10 06:58:54;;;;;;;7.18;2.80;;;;;;;;;;5097071;28;20203;-75
2021/04/10 07:01:21;;;;;;;11.02;2.40;;;;;;;;;;5112740;28;20249;-75
2021/04/10 07:03:50;;;;;;;8.02;2.97;;;;;;;;;;5112576;28;20185;-74
2021/04/10 07:06:16;;;;;;;9.20;2.33;;;;;;;;;;5113197;28;20588;-75
2021/04/10 07:08:42;;;;;;;9.25;2.75;;;;;;;;;;5109469;28;20178;-76
2021/04/10 07:11:08;;;;;;;5.95;3.45;;;;;;;;;;5113459;28;20183;-75
2021/04/10 07:13:34;;;;;;;5.63;2.27;;;;;;;;;;5108758;28;20225;-76
2021/04/10 07:16:01;;;;;;;8.73;3.13;;;;;;;;;;5103237;28;20475;-75
2021/04/10 07:18:30;;;;;;;6.75;2.83;;;;;;;;;;5116751;28;20404;-74
2021/04/10 07:21:15;;;;;;;5.32;2.17;;;;;;;;;;5117494;28;20175;-75
2021/04/10 07:23:48;;;;;;;29.73;16.90;;;;;;;;;;5113742;28;20253;-76
2021/04/10 07:26:15;;;;;;;30.85;18.08;;;;;;;;;;5096166;28;20237;-76
2021/04/10 07:28:41;;;;;;;9.00;3.85;;;;;;;;;;5094639;28;20175;-75
2021/04/10 07:31:09;;;;;;;10.52;2.80;;;;;;;;;;5106061;28;20181;-75
2021/04/10 07:33:36;;;;;;;9.38;3.50;;;;;;;;;;5113467;28;20206;-75
2021/04/10 07:36:03;;;;;;;6.30;2.13;;;;;;;;;;5100491;28;20202;-76
2021/04/10 07:38:40;;;;;;;6.85;2.30;;;;;;;;;;5095861;28;20187;-75
2021/04/10 07:41:16;;;;;;;8.00;2.38;;;;;;;;;;5090187;28;20179;-74
2021/04/10 07:43:43;;;;;;;10.27;2.72;;;;;;;;;;5090130;28;20171;-75
2021/04/10 07:46:17;;;;;;;7.28;2.00;;;;;;;;;;5109936;28;20652;-75
2021/04/10 07:48:58;;;;;;;7.05;1.95;;;;;;;;;;5091643;28;20200;-74
2021/04/10 07:51:24;;;;;;;8.27;2.80;;;;;;;;;;5095736;28;20188;-74
2021/04/10 07:53:51;;;;;;;6.00;2.00;;;;;;;;;;5094926;28;20632;-74
2021/04/10 07:56:16;;;;;;;8.68;2.58;;;;;;;;;;5095639;28;20210;-74
2021/04/10 07:58:42;;;;;;;6.10;2.13;;;;;;;;;;5106027;28;20175;-74
2021/04/10 08:01:09;;;;;;;10.03;2.17;;;;;;;;;;5116073;28;20405;-74
2021/04/10 08:03:37;;;;;;;12.32;2.50;;;;;;;;;;5115494;28;20412;-76
2021/04/10 08:06:12;;;;;;;7.15;1.80;;;;;;;;;;5115814;28;20690;-76
2021/04/10 08:09:00;;;;;;;6.85;2.40;;;;;;;;;;5111451;28;20186;-75
2021/04/10 08:11:36;;;;;;;6.40;1.80;;;;;;;;;;5116136;28;20250;-75
2021/04/10 08:14:08;;;;;;;4.47;2.10;;;;;;;;;;5106587;28;20344;-75
2021/04/10 08:16:42;;;;;;;4.63;2.05;;;;;;;;;;5106155;28;20191;-73
2021/04/10 08:19:09;;;;;;;7.22;2.58;;;;;;;;;;5115541;27;20539;-75
2021/04/10 08:21:35;;;;;;;5.03;2.20;;;;;;;;;;5115909;28;20258;-75
2021/04/10 08:24:01;;;;;;;8.70;2.30;;;;;;;;;;5109838;28;20254;-75
2021/04/10 08:26:27;;;;;;;4.93;2.00;;;;;;;;;;5094444;28;20926;-74
2021/04/10 08:28:53;;;;;;;8.23;2.78;;;;;;;;;;5094970;28;20175;-75
2021/04/10 08:31:20;;;;;;;6.03;2.50;;;;;;;;;;5094975;28;20248;-75
2021/04/10 08:33:46;;;;;;;5.68;2.08;;;;;;;;;;5094421;28;20194;-75
2021/04/10 08:36:12;;;;;;;4.45;2.30;;;;;;;;;;5094769;28;20203;-75
2021/04/10 08:38:40;;;;;;;6.38;2.10;;;;;;;;;;5094715;28;20171;-76
2021/04/10 08:41:08;;;;;;;5.88;1.80;;;;;;;;;;5094895;28;20254;-76
2021/04/10 08:43:43;;;;;;;6.22;2.20;;;;;;;;;;5094869;28;20199;-75
2021/04/10 08:46:10;;;;;;;5.53;1.88;;;;;;;;;;5094643;28;20248;-75
2021/04/10 08:48:37;;;;;;;4.88;2.08;;;;;;;;;;5094821;28;20259;-76
2021/04/10 08:51:05;;;;;;;9.65;2.22;;;;;;;;;;5094775;28;20175;-76
2021/04/10 08:53:33;;;;;;;6.72;1.85;;;;;;;;;;5094251;28;20223;-75
2021/04/10 08:55:59;;;;;;;8.20;3.00;;;;;;;;;;5094320;28;20195;-75
2021/04/10 08:58:29;;;;;;;8.82;2.15;;;;;;;;;;5100954;28;20261;-76
2021/04/10 09:00:56;;;;;;;8.38;2.10;;;;;;;;;;5115293;28;20171;-75
2021/04/10 09:03:42;;;;;;;5.50;2.28;;;;;;;;;;5114456;28;20177;-74
2021/04/10 09:06:08;;;;;;;7.93;2.13;;;;;;;;;;5110136;28;20298;-75
2021/04/10 09:08:34;;;;;;;6.63;2.60;;;;;;;;;;5094357;28;20206;-75
2021/04/10 09:11:03;;;;;;;7.80;2.17;;;;;;;;;;5110957;28;20416;-75
2021/04/10 09:13:30;;;;;;;6.50;1.95;;;;;;;;;;5110350;28;20413;-76
2021/04/10 09:16:14;;;;;;;5.13;2.15;;;;;;;;;;5098531;28;20206;-75
2021/04/10 09:18:49;;;;;;;5.28;2.15;;;;;;;;;;5114520;28;20174;-76
2021/04/10 09:21:15;;;;;;;6.55;1.90;;;;;;;;;;5114598;27;20166;-75
2021/04/10 09:23:48;;;;;;;7.53;2.10;;;;;;;;;;5111601;28;20681;-76
2021/04/10 09:26:15;;;;;;;8.02;2.30;;;;;;;;;;5093975;28;20482;-76
2021/04/10 09:28:56;;;;;;;7.95;2.22;;;;;;;;;;5094123;28;20203;-76
2021/04/10 09:31:41;;;;;;;5.80;2.33;;;;;;;;;;5093965;28;20175;-76
2021/04/10 09:34:26;;;;;;;3.58;1.70;;;;;;;;;;5093500;28;20203;-76
2021/04/10 09:36:52;;;;;;;4.15;1.90;;;;;;;;;;5092887;28;20208;-75
2021/04/10 09:39:36;;;;;;;5.82;1.83;;;;;;;;;;5093883;28;20175;-76
2021/04/10 09:42:02;;;;;;;4.68;2.25;;;;;;;;;;5093797;28;20178;-74
2021/04/10 09:44:28;;;;;;;4.28;1.80;;;;;;;;;;5093144;28;20203;-75
2021/04/10 09:46:54;;;;;;;4.00;1.73;;;;;;;;;;5093429;28;20234;-75
2021/04/10 09:49:36;;;;;;;3.53;2.03;;;;;;;;;;5093807;28;20835;-76
2021/04/10 09:52:03;;;;;;;4.47;1.77;;;;;;;;;;5092127;28;20601;-75
2021/04/10 09:54:31;;;;;;;4.30;2.10;;;;;;;;;;5092840;28;20195;-75
2021/04/10 09:56:57;;;;;;;4.60;1.80;;;;;;;;;;5100015;28;20263;-75
2021/04/10 09:59:23;;;;;;;4.77;2.00;;;;;;;;;;5093610;28;20172;-76
2021/04/10 10:01:49;;;;;;;6.70;2.10;;;;;;;;;;5093559;28;20465;-76
2021/04/10 10:04:15;;;;;;;6.80;2.03;;;;;;;;;;5093118;28;20225;-75
2021/04/10 10:06:46;;;;;;;4.38;1.98;;;;;;;;;;5093157;28;20426;-76
2021/04/10 10:09:22;;;;;;;3.22;1.50;;;;;;;;;;5096007;28;20171;-76
2021/04/10 10:11:49;;;;;;;6.60;2.00;;;;;;;;;;5113848;28;20202;-76
2021/04/10 10:14:15;;;;;;;4.22;1.92;;;;;;;;;;5102587;28;20206;-76
2021/04/10 10:16:41;;;;;;;9.03;2.23;;;;;;;;;;5093427;28;20199;-76
2021/04/10 10:19:14;;;;;;;4.47;2.10;;;;;;;;;;5092190;28;20478;-76
2021/04/10 10:21:40;;;;;;;3.90;1.92;;;;;;;;;;5093230;28;20408;-75
2021/04/10 10:24:07;;;;;;;4.70;2.10;;;;;;;;;;5092668;28;20179;-76
2021/04/10 10:26:35;;;;;;;3.90;1.80;;;;;;;;;;5093400;28;20433;-76
2021/04/10 10:29:03;;;;;;;5.28;2.00;;;;;;;;;;5093072;28;20262;-76
2021/04/10 10:31:31;;;;;;;5.35;2.35;;;;;;;;;;5092951;28;20217;-76
2021/04/10 10:34:05;;;;;;;2.63;1.60;;;;;;;;;;5092529;28;20302;-76
2021/04/10 10:36:35;;;;;;;3.70;1.70;;;;;;;;;;5092795;28;20694;-76
2021/04/10 10:39:01;;;;;;;3.65;1.60;;;;;;;;;;5093020;28;20258;-75
2021/04/10 10:41:28;;;;;;;4.40;1.70;;;;;;;;;;5093275;28;20584;-75
2021/04/10 10:44:00;;;;;;;3.40;1.90;;;;;;;;;;5092864;28;20417;-75
2021/04/10 10:46:26;;;;;;;3.40;1.80;;;;;;;;;;5092762;28;20372;-74
2021/04/10 10:48:52;;;;;;;5.53;2.00;;;;;;;;;;5094767;28;20256;-76
2021/04/10 10:51:19;;;;;;;4.40;2.03;;;;;;;;;;5096946;28;20409;-76
2021/04/10 10:53:46;;;;;;;6.53;2.40;;;;;;;;;;5096991;28;20414;-75
2021/04/10 10:56:32;;;;;;;4.67;1.80;;;;;;;;;;5096760;28;20434;-76
2021/04/10 10:59:02;;;;;;;4.13;2.00;;;;;;;;;;5109270;28;20574;-76
2021/04/10 11:01:31;;;;;;;3.33;1.60;;;;;;;;;;5117002;28;20488;-77
2021/04/10 11:04:00;;;;;;;3.93;2.00;;;;;;;;;;5116836;28;20513;-77
2021/04/10 11:06:27;;;;;;;4.03;2.53;;;;;;;;;;5117414;28;20808;-77
2021/04/10 11:08:54;;;;;;;3.97;2.73;;;;;;;;;;5111866;28;20458;-76
2021/04/10 11:11:22;;;;;;;3.23;2.13;;;;;;;;;;5116697;28;20498;-76
2021/04/10 11:13:48;;;;;;;5.43;2.30;;;;;;;;;;5109624;28;20413;-77
2021/04/10 11:16:16;;;;;;;5.57;2.03;;;;;;;;;;5096528;28;20505;-76
2021/04/10 11:18:42;;;;;;;6.20;2.50;;;;;;;;;;5096338;28;20412;-76
2021/04/10 11:21:11;;;;;;;4.60;2.30;;;;;;;;;;5096361;28;20766;-78
2021/04/10 11:23:56;;;;;;;4.03;2.20;;;;;;;;;;5096013;28;20431;-76
2021/04/10 11:26:40;;;;;;;4.07;1.97;;;;;;;;;;5096021;28;20433;-76
2021/04/10 11:29:20;;;;;;;5.60;2.87;;;;;;;;;;5096632;28;20405;-76
2021/04/10 11:32:05;;;;;;;6.17;2.30;;;;;;;;;;5096076;28;20416;-74
2021/04/10 11:34:32;;;;;;;4.43;2.00;;;;;;;;;;5095788;28;20461;-76
2021/04/10 11:36:58;;;;;;;3.23;2.00;;;;;;;;;;5095852;28;20437;-75
2021/04/10 11:39:25;;;;;;;3.97;2.20;;;;;;;;;;5096200;28;20447;-76
2021/04/10 11:41:51;;;;;;;3.57;2.27;;;;;;;;;;5096240;28;20409;-76
2021/04/10 11:44:18;;;;;;;3.30;1.93;;;;;;;;;;5095706;28;20409;-76
2021/04/10 11:46:44;;;;;;;4.03;2.30;;;;;;;;;;5095833;28;20458;-76
2021/04/10 11:49:10;;;;;;;4.43;2.10;;;;;;;;;;5095855;28;20409;-76
2021/04/10 11:51:36;;;;;;;3.43;2.10;;;;;;;;;;5095339;28;20925;-76
2021/04/10 11:54:02;;;;;;;7.43;2.47;;;;;;;;;;5095248;28;20864;-75
2021/04/10 11:56:34;;;;;;;3.80;2.40;;;;;;;;;;5095608;28;20425;-75
2021/04/10 11:59:04;;;;;;;3.13;1.77;;;;;;;;;;5109657;28;20444;-75
2021/04/10 12:01:30;;;;;;;6.57;1.90;;;;;;;;;;5115114;28;20957;-76
2021/04/10 12:03:59;;;;;;;4.40;2.13;;;;;;;;;;5115585;28;20448;-76
2021/04/10 12:06:31;;;;;;;6.47;2.47;;;;;;;;;;5116178;28;20521;-77
2021/04/10 12:09:06;;;;;;;3.17;2.00;;;;;;;;;;5111699;28;20405;-77
2021/04/10 12:11:36;;;;;;;5.73;2.17;;;;;;;;;;5115929;27;20410;-76
2021/04/10 12:14:06;;;;;;;3.83;2.20;;;;;;;;;;5106598;28;20487;-75
2021/04/10 12:16:33;;;;;;;5.30;2.30;;;;;;;;;;5106495;28;20485;-76
2021/04/10 12:18:58;;;;;;;3.00;1.80;;;;;;;;;;5115891;28;20409;-76
2021/04/10 12:21:24;;;;;;;4.37;2.20;;;;;;;;;;5115871;28;20872;-75
2021/04/10 12:23:50;;;;;;;5.00;2.30;;;;;;;;;;5111690;28;20419;-76
2021/04/10 12:26:16;;;;;;;4.10;2.43;;;;;;;;;;5095143;28;20444;-76
2021/04/10 12:28:42;;;;;;;3.63;2.30;;;;;;;;;;5095329;28;20443;-77
2021/04/10 12:31:11;;;;;;;3.90;2.40;;;;;;;;;;5095642;28;20462;-76
2021/04/10 12:33:38;;;;;;;7.27;2.90;;;;;;;;;;5094830;28;20444;-76
2021/04/10 12:36:04;;;;;;;5.90;2.60;;;;;;;;;;5094861;28;21357;-76
2021/04/10 12:38:30;;;;;;;4.43;2.23;;;;;;;;;;5094928;28;20458;-76
2021/04/10 12:40:56;;;;;;;9.10;2.57;;;;;;;;;;5094832;28;20893;-76
2021/04/10 12:43:22;;;;;;;5.00;2.80;;;;;;;;;;5092934;28;20499;-76
2021/04/10 12:45:48;;;;;;;2.80;1.97;;;;;;;;;;5094663;28;20599;-76
2021/04/10 12:48:14;;;;;;;5.60;1.93;;;;;;;;;;5094685;28;20417;-76
2021/04/10 12:50:40;;;;;;;4.30;2.13;;;;;;;;;;5094761;28;20770;-76
2021/04/10 12:53:07;;;;;;;5.27;2.10;;;;;;;;;;5097231;28;20440;-74
2021/04/10 12:55:33;;;;;;;3.80;2.17;;;;;;;;;;5106569;28;20495;-75
2021/04/10 12:57:59;;;;;;;4.03;2.23;;;;;;;;;;5088872;28;20432;-76
2021/04/10 13:00:25;;;;;;;3.90;2.20;;;;;;;;;;5090131;28;20432;-75
2021/04/10 13:02:52;;;;;;;4.07;2.37;;;;;;;;;;5102609;28;20408;-77
2021/04/10 13:05:18;;;;;;;4.23;2.57;;;;;;;;;;5090319;28;20471;-76
2021/04/10 13:07:44;;;;;;;5.53;2.50;;;;;;;;;;5098224;28;20859;-75
2021/04/10 13:10:12;;;;;;;3.93;2.47;;;;;;;;;;5089886;28;21112;-76
2021/04/10 13:12:38;;;;;;;4.87;2.40;;;;;;;;;;5093985;28;20420;-76
2021/04/10 13:15:06;;;;;;;5.93;2.57;;;;;;;;;;5089194;28;20466;-77
2021/04/10 13:17:32;;;;;;;5.03;2.63;;;;;;;;;;5090228;28;20444;-76
2021/04/10 13:19:57;;;;;;;3.43;2.13;;;;;;;;;;5088559;28;20501;-77
2021/04/10 13:22:23;;;;;;;3.30;2.20;;;;;;;;;;5091941;28;20424;-77
2021/04/10 13:24:50;;;;;;;3.60;2.07;;;;;;;;;;5089228;28;20426;-76
2021/04/10 13:27:16;;;;;;;4.63;2.40;;;;;;;;;;5091216;28;20441;-76
2021/04/10 13:29:42;;;;;;;3.83;2.30;;;;;;;;;;5089866;28;20421;-76
2021/04/10 13:32:08;;;;;;;4.10;2.50;;;;;;;;;;5087930;28;20790;-76
2021/04/10 13:34:34;;;;;;;3.10;2.20;;;;;;;;;;5089711;28;20453;-75
2021/04/10 13:37:00;;;;;;;4.40;2.60;;;;;;;;;;5089180;28;20498;-76
2021/04/10 13:39:26;;;;;;;4.40;2.20;;;;;;;;;;5100195;28;20798;-75
2021/04/10 13:41:52;;;;;;;3.53;2.33;;;;;;;;;;5089711;28;20429;-75
2021/04/10 13:44:18;;;;;;;3.17;2.47;;;;;;;;;;5089447;28;20434;-76
2021/04/10 13:46:44;;;;;;;3.50;2.20;;;;;;;;;;5090256;28;20443;-77
2021/04/10 13:49:10;;;;;;;4.30;2.60;;;;;;;;;;5093365;28;20439;-75
2021/04/10 13:51:36;;;;;;;4.00;2.30;;;;;;;;;;5104841;28;20869;-75
2021/04/10 13:54:02;;;;;;;4.03;2.40;;;;;;;;;;5089166;28;20420;-75
2021/04/10 13:56:30;;;;;;;4.50;2.57;;;;;;;;;;5089669;28;20966;-76
2021/04/10 13:58:56;;;;;;;4.90;3.33;;;;;;;;;;5089390;28;20759;-75
2021/04/10 14:01:22;;;;;;;4.63;2.70;;;;;;;;;;5100879;28;20429;-75
2021/04/10 14:03:48;;;;;;;4.50;2.33;;;;;;;;;;5108995;28;20417;-76
2021/04/10 14:06:15;;;;;;;6.30;2.83;;;;;;;;;;5088736;28;20993;-76
2021/04/10 14:08:43;;;;;;;5.70;2.57;;;;;;;;;;5089336;28;20441;-75
2021/04/10 14:11:11;;;;;;;7.47;2.47;;;;;;;;;;5089431;28;20433;-76
2021/04/10 14:13:38;;;;;;;5.70;3.07;;;;;;;;;;5088820;28;20498;-76
2021/04/10 14:16:04;;;;;;;5.50;2.80;;;;;;;;;;5088810;28;20475;-75
2021/04/10 14:18:30;;;;;;;4.63;2.35;;;;;;;;;;5108225;28;20206;-74
2021/04/10 14:20:57;;;;;;;4.90;2.38;;;;;;;;;;5100626;28;20271;-75
2021/04/10 14:23:25;;;;;;;4.53;2.60;;;;;;;;;;5096505;28;20199;-75
2021/04/10 14:25:51;;;;;;;4.03;2.10;;;;;;;;;;5097212;28;20898;-75
2021/04/10 14:28:18;;;;;;;6.68;2.10;;;;;;;;;;5099789;28;20186;-76
2021/04/10 14:30:44;;;;;;;10.10;2.42;;;;;;;;;;5083891;28;20221;-74
2021/04/10 14:33:12;;;;;;;2.63;2.00;;;;;;;;;;5089259;28;20202;-76
2021/04/10 14:35:40;;;;;;;3.95;2.47;;;;;;;;;;5096648;28;20206;-75
2021/04/10 14:38:06;;;;;;;3.75;2.83;;;;;;;;;;5108456;28;20206;-76
2021/04/10 14:40:32;;;;;;;5.80;3.15;;;;;;;;;;5088970;28;20624;-75
2021/04/10 14:43:05;;;;;;;4.13;2.25;;;;;;;;;;5088915;28;20190;-75